createdAt,value
2023-02-26T00:01:44.610Z,1.17
2023-02-26T00:04:12.636Z,0.60
2023-02-26T00:06:52.733Z,0.77
2023-02-26T00:09:21.743Z,0.77
2023-02-26T00:11:50.663Z,0.63
2023-02-26T00:14:18.956Z,0.60
2023-02-26T00:16:48.899Z,0.85
2023-02-26T00:19:16.903Z,0.60
2023-02-26T00:21:46.799Z,0.63
2023-02-26T00:24:14.744Z,0.60
2023-02-26T00:26:43.071Z,0.70
2023-02-26T00:29:11.287Z,0.70
2023-02-26T00:31:40.343Z,0.70
2023-02-26T00:34:12.573Z,0.80
2023-02-26T00:36:44.646Z,0.70
2023-02-26T00:39:20.906Z,0.73
2023-02-26T00:41:49.257Z,0.60
2023-02-26T00:44:17.841Z,0.57
2023-02-26T00:46:49.498Z,0.50
2023-02-26T00:49:24.551Z,0.50
2023-02-26T00:51:53.914Z,0.40
2023-02-26T00:54:25.545Z,0.73
2023-02-26T00:56:54.214Z,0.80
2023-02-26T00:59:22.495Z,0.30
2023-02-26T01:01:51.143Z,0.20
2023-02-26T01:04:20.908Z,0.35
2023-02-26T01:06:50.532Z,0.50
2023-02-26T01:09:22.619Z,0.52
2023-02-26T01:11:52.590Z,0.30
2023-02-26T01:14:24.133Z,0.43
2023-02-26T01:16:54.712Z,0.50
2023-02-26T01:19:26.646Z,0.57
2023-02-26T01:21:57.629Z,0.60
2023-02-26T01:24:25.851Z,0.55
2023-02-26T01:26:55.660Z,0.60
2023-02-26T01:29:23.836Z,0.50
2023-02-26T01:31:55.710Z,0.50
2023-02-26T01:34:26.900Z,0.55
2023-02-26T01:36:57.835Z,0.30
2023-02-26T01:39:30.561Z,0.50
2023-02-26T01:42:02.411Z,0.50
2023-02-26T01:44:33.780Z,0.40
2023-02-26T01:47:12.897Z,0.52
2023-02-26T01:49:43.109Z,0.30
2023-02-26T01:52:26.508Z,0.40
2023-02-26T01:54:54.546Z,0.47
2023-02-26T01:57:24.475Z,0.30
2023-02-26T01:59:53.248Z,0.47
2023-02-26T02:02:22.714Z,0.20
2023-02-26T02:04:53.198Z,0.22
2023-02-26T02:07:21.374Z,0.50
2023-02-26T02:09:49.336Z,0.30
2023-02-26T02:12:25.300Z,0.43
2023-02-26T02:15:01.930Z,0.60
2023-02-26T02:17:34.585Z,0.40
2023-02-26T02:20:20.310Z,0.55
2023-02-26T02:23:01.878Z,0.43
2023-02-26T02:25:41.554Z,0.40
2023-02-26T02:28:15.350Z,0.25
2023-02-26T02:30:54.591Z,0.50
2023-02-26T02:33:24.553Z,0.40
2023-02-26T02:35:55.798Z,0.40
2023-02-26T02:38:26.851Z,0.43
2023-02-26T02:41:00.774Z,0.50
2023-02-26T02:43:31.010Z,0.40
2023-02-26T02:46:05.098Z,0.30
2023-02-26T02:48:34.422Z,0.40
2023-02-26T02:51:05.090Z,0.63
2023-02-26T02:53:38.411Z,0.30
2023-02-26T02:56:10.251Z,0.40
2023-02-26T02:58:41.337Z,0.30
2023-02-26T03:01:12.718Z,0.35
2023-02-26T03:03:44.468Z,0.17
2023-02-26T03:06:12.414Z,0.22
2023-02-26T03:08:41.468Z,0.32
2023-02-26T03:11:09.479Z,0.25
2023-02-26T03:13:39.511Z,0.50
2023-02-26T03:16:13.561Z,0.35
2023-02-26T03:18:47.532Z,0.25
2023-02-26T03:21:18.491Z,0.50
2023-02-26T03:23:51.309Z,0.40
2023-02-26T03:26:22.259Z,0.70
2023-02-26T03:28:53.250Z,0.82
2023-02-26T03:31:36.710Z,0.30
2023-02-26T03:34:08.746Z,0.30
2023-02-26T03:36:38.690Z,0.50
2023-02-26T03:39:10.839Z,0.60
2023-02-26T03:41:40.683Z,0.40
2023-02-26T03:44:10.451Z,0.38
2023-02-26T03:46:45.839Z,0.60
2023-02-26T03:49:15.858Z,0.60
2023-02-26T03:51:44.261Z,0.73
2023-02-26T03:54:15.866Z,0.60
2023-02-26T03:56:44.985Z,0.80
2023-02-26T04:01:44.340Z,0.82
2023-02-26T04:04:16.348Z,0.98
2023-02-26T04:06:44.684Z,0.63
2023-02-26T04:09:15.846Z,0.90
2023-02-26T04:11:44.901Z,0.68
2023-02-26T04:14:15.729Z,1.00
2023-02-26T04:16:45.514Z,0.60
2023-02-26T04:19:14.314Z,0.50
2023-02-26T04:21:42.317Z,0.50
2023-02-26T04:24:10.748Z,0.65
2023-02-26T04:26:38.602Z,0.55
2023-02-26T04:29:06.788Z,0.70
2023-02-26T04:31:34.749Z,0.60
2023-02-26T04:34:04.653Z,0.88
2023-02-26T04:36:32.776Z,0.60
2023-02-26T04:39:01.323Z,0.70
2023-02-26T04:41:29.266Z,0.50
2023-02-26T04:43:57.411Z,1.27
2023-02-26T04:46:25.724Z,1.05
2023-02-26T04:48:53.768Z,1.17
2023-02-26T04:51:23.448Z,1.13
2023-02-26T04:56:19.244Z,1.38
2023-02-26T04:58:47.327Z,1.50
2023-02-26T05:01:15.833Z,1.10
2023-02-26T05:03:43.739Z,0.90
2023-02-26T05:06:11.934Z,1.00
2023-02-26T05:08:45.315Z,1.10
2023-02-26T05:11:13.703Z,1.50
2023-02-26T05:13:41.608Z,1.33
2023-02-26T05:16:10.106Z,1.52
2023-02-26T05:18:38.443Z,1.27
2023-02-26T05:21:06.964Z,1.10
2023-02-26T05:23:35.176Z,1.40
2023-02-26T05:26:04.764Z,1.67
2023-02-26T05:28:33.966Z,1.63
2023-02-26T05:31:02.352Z,1.25
2023-02-26T05:33:30.398Z,1.48
2023-02-26T05:35:58.746Z,0.95
2023-02-26T05:38:29.230Z,1.08
2023-02-26T05:40:58.446Z,0.88
2023-02-26T05:43:28.055Z,0.82
2023-02-26T05:45:56.639Z,0.93
2023-02-26T05:48:24.902Z,1.02
2023-02-26T05:50:53.327Z,0.93
2023-02-26T05:53:21.542Z,0.70
2023-02-26T05:55:50.462Z,0.83
2023-02-26T05:58:18.484Z,0.85
2023-02-26T06:00:50.219Z,0.65
2023-02-26T06:03:18.584Z,0.77
2023-02-26T06:05:46.828Z,0.80
2023-02-26T06:08:16.049Z,0.75
2023-02-26T06:10:44.808Z,0.52
2023-02-26T06:13:12.797Z,0.60
2023-02-26T06:15:44.002Z,0.82
2023-02-26T06:18:13.280Z,0.50
2023-02-26T06:20:41.832Z,0.60
2023-02-26T06:23:09.685Z,0.70
2023-02-26T06:25:40.210Z,0.93
2023-02-26T06:28:10.412Z,0.57
2023-02-26T06:30:38.562Z,0.73
2023-02-26T06:33:09.186Z,0.77
2023-02-26T06:35:39.699Z,0.70
2023-02-26T06:38:08.060Z,0.65
2023-02-26T06:40:36.258Z,0.60
2023-02-26T06:43:04.314Z,0.90
2023-02-26T06:45:32.716Z,0.60
2023-02-26T06:48:00.690Z,0.88
2023-02-26T06:50:28.985Z,0.73
2023-02-26T06:52:58.314Z,0.73
2023-02-26T06:55:27.119Z,0.60
2023-02-26T06:57:55.084Z,0.37
2023-02-26T07:00:23.885Z,0.70
2023-02-26T07:02:52.350Z,0.90
2023-02-26T07:05:20.624Z,0.50
2023-02-26T07:07:48.728Z,0.88
2023-02-26T07:10:18.267Z,0.30
2023-02-26T07:12:48.545Z,0.40
2023-02-26T07:15:17.219Z,0.45
2023-02-26T07:17:45.084Z,0.50
2023-02-26T07:20:14.913Z,1.02
2023-02-26T07:25:14.100Z,3.67
2023-02-26T07:27:43.786Z,1.52
2023-02-26T07:30:14.482Z,3.55
2023-02-26T07:32:42.691Z,1.08
2023-02-26T07:35:11.191Z,1.40
2023-02-26T07:37:39.776Z,0.90
2023-02-26T07:40:08.982Z,0.88
2023-02-26T07:42:36.899Z,0.80
2023-02-26T07:45:05.518Z,0.73
2023-02-26T07:47:35.028Z,1.60
2023-02-26T07:50:03.201Z,0.80
2023-02-26T07:52:31.154Z,1.00
2023-02-26T07:54:59.585Z,0.90
2023-02-26T07:57:27.456Z,1.60
2023-02-26T07:59:55.973Z,1.23
2023-02-26T08:02:24.566Z,1.40
2023-02-26T08:04:54.746Z,2.15
2023-02-26T08:07:22.633Z,0.90
2023-02-26T08:09:50.812Z,0.85
2023-02-26T08:12:20.754Z,1.10
2023-02-26T08:14:49.143Z,0.70
2023-02-26T08:17:17.208Z,1.00
2023-02-26T08:19:45.384Z,1.30
2023-02-26T08:22:15.217Z,0.90
2023-02-26T08:24:43.679Z,0.70
2023-02-26T08:27:13.540Z,4.00
2023-02-26T08:29:43.138Z,0.80
2023-02-26T08:32:11.185Z,0.60
2023-02-26T08:34:39.377Z,1.23
2023-02-26T08:37:09.714Z,0.50
2023-02-26T08:39:40.165Z,1.10
2023-02-26T08:42:08.501Z,0.75
2023-02-26T08:44:37.224Z,0.70
2023-02-26T08:47:05.193Z,0.73
2023-02-26T08:49:33.779Z,0.57
2023-02-26T08:52:01.934Z,0.70
2023-02-26T08:54:30.113Z,1.35
2023-02-26T08:56:59.931Z,0.50
2023-02-26T08:59:30.807Z,0.85
2023-02-26T09:01:58.754Z,0.68
2023-02-26T09:04:30.936Z,0.57
2023-02-26T09:06:59.163Z,0.65
2023-02-26T09:09:27.477Z,0.60
2023-02-26T09:11:55.727Z,0.80
2023-02-26T09:14:26.049Z,1.15
2023-02-26T09:19:21.909Z,0.57
2023-02-26T09:21:49.815Z,0.85
2023-02-26T09:24:18.004Z,0.52
2023-02-26T09:26:45.901Z,0.82
2023-02-26T09:29:14.538Z,0.95
2023-02-26T09:31:44.197Z,0.98
2023-02-26T09:34:12.720Z,1.10
2023-02-26T09:36:41.112Z,0.57
2023-02-26T09:39:09.857Z,1.60
2023-02-26T09:41:39.219Z,0.60
2023-02-26T09:44:18.624Z,0.30
2023-02-26T09:46:52.401Z,0.57
2023-02-26T09:49:22.802Z,0.60
2023-02-26T09:51:53.211Z,0.85
2023-02-26T09:54:24.096Z,0.63
2023-02-26T09:56:53.075Z,0.90
2023-02-26T09:59:21.330Z,0.45
2023-02-26T10:01:54.617Z,1.00
2023-02-26T10:04:28.254Z,0.90
2023-02-26T10:07:01.848Z,1.27
2023-02-26T10:09:33.809Z,0.50
2023-02-26T10:12:04.034Z,0.98
2023-02-26T10:14:37.228Z,0.95
2023-02-26T10:17:09.479Z,1.00
2023-02-26T10:19:37.578Z,0.60
2023-02-26T10:22:07.454Z,1.13
2023-02-26T10:24:40.075Z,2.10
2023-02-26T10:27:10.746Z,0.73
2023-02-26T10:29:43.641Z,0.90
2023-02-26T10:32:20.749Z,0.90
2023-02-26T10:34:54.740Z,0.93
2023-02-26T10:37:25.147Z,2.53
2023-02-26T10:39:55.165Z,0.70
2023-02-26T10:42:24.658Z,1.00
2023-02-26T10:44:58.222Z,0.80
2023-02-26T10:47:32.650Z,0.90
2023-02-26T10:50:04.001Z,0.85
2023-02-26T10:52:36.473Z,0.98
2023-02-26T10:55:10.873Z,1.17
2023-02-26T10:57:41.796Z,1.10
2023-02-26T11:00:18.912Z,1.13
2023-02-26T11:02:49.520Z,1.25
2023-02-26T11:05:22.739Z,1.05
2023-02-26T11:07:52.337Z,1.17
2023-02-26T11:10:22.143Z,1.13
2023-02-26T11:12:53.117Z,1.48
2023-02-26T11:15:22.815Z,0.98
2023-02-26T11:20:27.261Z,0.95
2023-02-26T11:22:57.464Z,0.88
2023-02-26T11:25:26.414Z,0.80
2023-02-26T11:27:57.096Z,0.60
2023-02-26T11:30:27.001Z,0.85
2023-02-26T11:32:57.900Z,0.90
2023-02-26T11:35:30.700Z,0.60
2023-02-26T11:38:00.265Z,1.02
2023-02-26T11:40:32.484Z,1.30
2023-02-26T11:43:01.758Z,1.17
2023-02-26T11:45:30.050Z,1.05
2023-02-26T11:48:02.381Z,1.30
2023-02-26T11:50:34.058Z,1.85
2023-02-26T11:53:07.915Z,2.92
2023-02-26T11:55:38.598Z,2.25
2023-02-26T11:58:16.279Z,1.08
2023-02-26T12:00:44.827Z,1.15
2023-02-26T12:03:17.304Z,2.30
2023-02-26T12:05:46.932Z,1.95
2023-02-26T12:08:18.511Z,2.95
2023-02-26T12:10:53.005Z,1.20
2023-02-26T12:13:26.440Z,2.10
2023-02-26T12:15:59.756Z,2.90
2023-02-26T12:18:32.836Z,1.90
2023-02-26T12:21:09.956Z,1.13
2023-02-26T12:23:45.886Z,1.70
2023-02-26T12:26:22.282Z,1.20
2023-02-26T12:28:56.479Z,1.10
2023-02-26T12:31:37.484Z,1.70
2023-02-26T12:34:13.599Z,1.00
2023-02-26T12:36:49.839Z,0.95
2023-02-26T12:39:25.534Z,1.20
2023-02-26T12:41:58.742Z,1.10
2023-02-26T12:44:37.440Z,0.88
2023-02-26T12:47:30.062Z,1.10
2023-02-26T12:50:09.844Z,1.02
2023-02-26T12:52:56.088Z,1.02
2023-02-26T12:55:35.244Z,1.10
2023-02-26T13:00:42.823Z,0.70
2023-02-26T13:03:23.253Z,0.70
2023-02-26T13:05:59.233Z,0.90
2023-02-26T13:08:33.367Z,0.80
2023-02-26T13:11:08.130Z,0.68
2023-02-26T13:13:43.021Z,1.10
2023-02-26T13:16:19.396Z,0.60
2023-02-26T13:18:50.428Z,0.70
2023-02-26T13:21:21.116Z,1.33
2023-02-26T13:23:52.578Z,0.70
2023-02-26T13:26:23.470Z,1.42
2023-02-26T13:28:54.007Z,0.98
2023-02-26T13:31:27.084Z,1.30
2023-02-26T13:33:56.653Z,1.55
2023-02-26T13:36:26.855Z,2.15
2023-02-26T13:39:04.805Z,0.90
2023-02-26T13:41:42.499Z,1.27
2023-02-26T13:44:25.940Z,1.65
2023-02-26T13:47:01.535Z,1.30
2023-02-26T13:49:33.198Z,1.10
2023-02-26T13:52:01.070Z,1.40
2023-02-26T13:54:44.264Z,0.73
2023-02-26T13:57:28.031Z,1.25
2023-02-26T14:00:07.225Z,1.00
2023-02-26T14:02:53.155Z,1.17
2023-02-26T14:05:40.178Z,1.10
2023-02-26T14:08:26.003Z,0.88
2023-02-26T14:10:59.510Z,0.80
2023-02-26T14:13:35.605Z,0.98
2023-02-26T14:16:11.335Z,1.20
2023-02-26T14:18:42.814Z,3.28
2023-02-26T14:21:29.985Z,0.90
2023-02-26T14:23:59.160Z,0.50
2023-02-26T14:29:08.930Z,0.88
2023-02-26T14:31:56.157Z,1.08
2023-02-26T14:34:26.288Z,0.80
2023-02-26T14:36:55.838Z,1.52
2023-02-26T14:39:26.321Z,1.83
2023-02-26T14:41:58.544Z,1.40
2023-02-26T14:47:13.980Z,0.77
2023-02-26T14:49:43.050Z,0.85
2023-02-26T14:52:20.737Z,0.90
2023-02-26T14:54:53.963Z,1.10
2023-02-26T14:57:26.582Z,0.80
2023-02-26T15:00:09.616Z,1.73
2023-02-26T15:02:44.143Z,0.70
2023-02-26T15:05:19.543Z,1.48
2023-02-26T15:07:54.942Z,2.30
2023-02-26T15:10:28.150Z,1.00
2023-02-26T15:13:06.508Z,0.93
2023-02-26T15:15:54.792Z,1.85
2023-02-26T15:18:43.822Z,0.88
2023-02-26T15:21:19.267Z,1.02
2023-02-26T15:23:49.063Z,1.65
2023-02-26T15:26:22.356Z,1.63
2023-02-26T15:28:51.355Z,1.55
2023-02-26T15:31:21.632Z,1.27
2023-02-26T15:33:50.029Z,1.10
2023-02-26T15:36:22.547Z,1.17
2023-02-26T15:38:55.092Z,1.20
2023-02-26T15:41:24.379Z,1.40
2023-02-26T15:43:55.320Z,1.27
2023-02-26T15:46:27.408Z,1.30
2023-02-26T15:48:58.012Z,1.35
2023-02-26T15:51:27.587Z,1.27
2023-02-26T15:54:02.977Z,1.88
2023-02-26T15:56:32.137Z,1.40
2023-02-26T16:01:29.320Z,1.63
2023-02-26T16:03:58.555Z,2.13
2023-02-26T16:06:29.562Z,1.85
2023-02-26T16:08:58.330Z,2.55
2023-02-26T16:11:27.636Z,3.00
2023-02-26T16:13:56.207Z,3.28
2023-02-26T16:16:26.856Z,2.85
2023-02-26T16:18:56.413Z,2.45
2023-02-26T16:21:32.000Z,2.38
2023-02-26T16:24:01.138Z,2.67
2023-02-26T16:26:31.263Z,3.28
2023-02-26T16:29:01.726Z,3.00
2023-02-26T16:31:35.201Z,1.85
2023-02-26T16:34:05.198Z,2.58
2023-02-26T16:36:39.333Z,2.42
2023-02-26T16:39:15.971Z,1.90
2023-02-26T16:41:44.101Z,2.25
2023-02-26T16:44:27.191Z,2.40
2023-02-26T16:46:55.168Z,2.45
2023-02-26T16:49:25.043Z,2.95
2023-02-26T16:51:56.187Z,3.25
2023-02-26T16:54:27.198Z,2.83
2023-02-26T16:56:57.408Z,2.90
2023-02-26T16:59:26.597Z,2.63
2023-02-26T17:01:57.448Z,2.78
2023-02-26T17:04:26.834Z,3.20
2023-02-26T17:06:56.501Z,2.92
2023-02-26T17:09:27.016Z,2.83
2023-02-26T17:12:04.913Z,3.92
2023-02-26T17:14:34.153Z,4.32
2023-02-26T17:17:02.152Z,3.45
2023-02-26T17:19:31.927Z,3.33
2023-02-26T17:24:31.609Z,3.55
2023-02-26T17:26:59.972Z,4.57
2023-02-26T17:29:31.258Z,3.00
2023-02-26T17:32:00.982Z,3.30
2023-02-26T17:34:29.219Z,4.35
2023-02-26T17:37:06.179Z,4.25
2023-02-26T17:39:35.732Z,5.40
2023-02-26T17:42:03.960Z,4.25
2023-02-26T17:44:32.684Z,4.28
2023-02-26T17:47:00.772Z,5.60
2023-02-26T17:49:35.556Z,5.22
2023-02-26T17:52:03.699Z,3.45
2023-02-26T17:54:31.881Z,4.17
2023-02-26T17:57:01.482Z,3.72
2023-02-26T17:59:29.766Z,4.32
2023-02-26T18:01:57.693Z,5.07
2023-02-26T18:04:26.524Z,4.43
2023-02-26T18:06:54.988Z,4.43
2023-02-26T18:09:23.202Z,2.92
2023-02-26T18:11:51.078Z,3.00
2023-02-26T18:14:20.673Z,2.80
2023-02-26T18:16:48.701Z,3.10
2023-02-26T18:19:17.972Z,2.65
2023-02-26T18:21:45.874Z,1.88
2023-02-26T18:24:14.041Z,3.17
2023-02-26T18:26:41.966Z,1.73
2023-02-26T18:29:10.860Z,2.95
2023-02-26T18:31:44.838Z,2.47
2023-02-26T18:34:13.600Z,2.20
2023-02-26T18:36:41.637Z,1.60
2023-02-26T18:39:13.314Z,2.17
2023-02-26T18:41:41.410Z,1.80
2023-02-26T18:44:09.604Z,2.00
2023-02-26T18:46:40.344Z,2.88
2023-02-26T18:49:16.547Z,2.47
2023-02-26T18:51:45.719Z,2.38
2023-02-26T18:56:41.956Z,2.38
2023-02-26T18:59:10.173Z,2.95
2023-02-26T19:01:38.064Z,2.40
2023-02-26T19:04:07.678Z,2.67
2023-02-26T19:06:37.344Z,2.13
2023-02-26T19:09:06.229Z,1.90
2023-02-26T19:11:34.375Z,2.63
2023-02-26T19:14:02.573Z,2.03
2023-02-26T19:16:35.481Z,2.05
2023-02-26T19:19:05.382Z,2.25
2023-02-26T19:21:34.270Z,2.70
2023-02-26T19:24:07.319Z,2.55
2023-02-26T19:26:35.315Z,2.28
2023-02-26T19:29:04.626Z,2.70
2023-02-26T19:31:33.271Z,2.47
2023-02-26T19:34:01.539Z,2.58
2023-02-26T19:36:33.779Z,2.78
2023-02-26T19:39:02.360Z,2.55
2023-02-26T19:41:32.036Z,2.60
2023-02-26T19:44:00.196Z,2.53
2023-02-26T19:46:28.626Z,3.90
2023-02-26T19:48:58.036Z,3.35
2023-02-26T19:51:26.207Z,3.60
2023-02-26T19:53:54.730Z,3.42
2023-02-26T19:56:22.686Z,3.30
2023-02-26T19:58:52.432Z,2.55
2023-02-26T20:03:49.193Z,2.30
2023-02-26T20:06:18.567Z,2.20
2023-02-26T20:08:46.935Z,2.10
2023-02-26T20:11:15.423Z,3.23
2023-02-26T20:13:44.078Z,3.10
2023-02-26T20:16:14.552Z,2.95
2023-02-26T20:18:44.716Z,2.88
2023-02-26T20:21:13.151Z,3.17
2023-02-26T20:23:41.619Z,3.17
2023-02-26T20:26:10.815Z,2.88
2023-02-26T20:28:39.500Z,3.75
2023-02-26T20:31:07.856Z,3.47
2023-02-26T20:33:39.509Z,3.80
2023-02-26T20:36:08.672Z,3.85
2023-02-26T20:41:05.166Z,2.75
2023-02-26T20:43:33.809Z,3.28
2023-02-26T20:46:02.022Z,3.22
2023-02-26T20:48:32.190Z,3.77
2023-02-26T20:51:06.386Z,3.25
2023-02-26T20:53:35.547Z,3.40
2023-02-26T20:56:03.441Z,3.97
2023-02-26T20:58:31.611Z,4.15
2023-02-26T21:01:00.092Z,4.00
2023-02-26T21:03:28.639Z,4.68
2023-02-26T21:05:56.585Z,4.18
2023-02-26T21:08:26.217Z,4.70
2023-02-26T21:10:54.099Z,4.38
2023-02-26T21:13:22.893Z,4.25
2023-02-26T21:15:51.207Z,5.47
2023-02-26T21:18:19.563Z,4.10
2023-02-26T21:20:47.494Z,5.30
2023-02-26T21:23:15.823Z,3.90
2023-02-26T21:25:45.136Z,3.50
2023-02-26T21:28:13.281Z,2.92
2023-02-26T21:30:41.241Z,3.40
2023-02-26T21:33:09.491Z,3.00
2023-02-26T21:35:38.591Z,3.20
2023-02-26T21:40:35.959Z,3.03
2023-02-26T21:43:05.726Z,2.17
2023-02-26T21:45:36.155Z,2.45
2023-02-26T21:48:04.733Z,2.80
2023-02-26T21:50:32.720Z,2.30
2023-02-26T21:53:01.554Z,2.35
2023-02-26T21:55:29.489Z,2.35
2023-02-26T21:57:57.716Z,2.30
2023-02-26T22:00:27.938Z,2.53
2023-02-26T22:02:56.150Z,1.98
2023-02-26T22:05:24.071Z,2.08
2023-02-26T22:07:52.282Z,2.58
2023-02-26T22:10:20.305Z,2.75
2023-02-26T22:12:48.476Z,1.85
2023-02-26T22:15:16.742Z,1.90
2023-02-26T22:17:48.743Z,2.15
2023-02-26T22:20:16.725Z,2.45
2023-02-26T22:22:44.927Z,2.58
2023-02-26T22:25:14.054Z,2.53
2023-02-26T22:30:11.360Z,2.40
2023-02-26T22:32:39.513Z,1.77
2023-02-26T22:35:09.604Z,1.63
2023-02-26T22:37:37.803Z,1.80
2023-02-26T22:40:06.264Z,1.73
2023-02-26T22:42:34.561Z,1.50
2023-02-26T22:45:02.449Z,1.40
2023-02-26T22:47:31.207Z,1.40
2023-02-26T22:49:59.342Z,1.48
2023-02-26T22:52:29.071Z,1.40
2023-02-26T22:54:59.351Z,1.65
2023-02-26T22:57:28.338Z,1.88
2023-02-26T22:59:56.271Z,1.42
2023-02-26T23:02:24.551Z,1.70
2023-02-26T23:04:52.483Z,2.05
2023-02-26T23:07:20.652Z,2.15
2023-02-26T23:09:49.905Z,1.65
2023-02-26T23:12:18.643Z,2.40
2023-02-26T23:14:46.495Z,1.90
2023-02-26T23:17:14.846Z,2.20
2023-02-26T23:19:42.708Z,2.20
2023-02-26T23:22:10.962Z,1.80
2023-02-26T23:24:38.865Z,1.77
2023-02-26T23:27:08.434Z,2.35
2023-02-26T23:29:37.423Z,1.52
2023-02-26T23:32:05.930Z,1.63
2023-02-26T23:34:34.150Z,2.28
2023-02-26T23:37:02.528Z,1.77
2023-02-26T23:39:30.676Z,1.63
2023-02-26T23:41:58.858Z,1.40
2023-02-26T23:44:28.177Z,1.50
2023-02-26T23:46:56.731Z,1.38
2023-02-26T23:49:24.747Z,1.58
2023-02-26T23:51:53.263Z,1.50
2023-02-26T23:54:21.132Z,1.45
2023-02-26T23:56:52.300Z,1.50
2023-02-26T23:59:20.183Z,1.40
